sensor_id;sensor_type;location;lat;lon;timestamp;P1;durP1;ratioP1;P2;durP2;ratioP2
67187;SDS011;54117;53.532;49.426;2022-09-03T00:01:02;19.40;;;10.77;;
67187;SDS011;54117;53.532;49.426;2022-09-03T00:03:37;16.65;;;9.93;;
67187;SDS011;54117;53.532;49.426;2022-09-03T00:06:10;16.25;;;9.77;;
67187;SDS011;54117;53.532;49.426;2022-09-03T00:08:43;17.02;;;9.90;;
67187;SDS011;54117;53.532;49.426;2022-09-03T00:13:54;22.13;;;9.48;;
67187;SDS011;54117;53.532;49.426;2022-09-03T00:16:42;17.35;;;9.25;;
67187;SDS011;54117;53.532;49.426;2022-09-03T00:19:09;20.50;;;10.05;;
67187;SDS011;54117;53.532;49.426;2022-09-03T00:21:44;15.57;;;9.93;;
67187;SDS011;54117;53.532;49.426;2022-09-03T00:24:25;16.30;;;9.63;;
67187;SDS011;54117;53.532;49.426;2022-09-03T00:26:56;15.00;;;8.98;;
67187;SDS011;54117;53.532;49.426;2022-09-03T00:29:38;15.43;;;9.30;;
67187;SDS011;54117;53.532;49.426;2022-09-03T00:32:19;18.33;;;9.18;;
67187;SDS011;54117;53.532;49.426;2022-09-03T00:34:52;15.50;;;9.88;;
67187;SDS011;54117;53.532;49.426;2022-09-03T00:37:25;22.02;;;10.80;;
67187;SDS011;54117;53.532;49.426;2022-09-03T00:39:53;20.48;;;9.20;;
67187;SDS011;54117;53.532;49.426;2022-09-03T00:45:22;20.00;;;9.73;;
67187;SDS011;54117;53.532;49.426;2022-09-03T00:48:25;19.50;;;9.70;;
67187;SDS011;54117;53.532;49.426;2022-09-03T00:56:44;15.00;;;8.98;;
67187;SDS011;54117;53.532;49.426;2022-09-03T01:02:10;16.58;;;8.98;;
67187;SDS011;54117;53.532;49.426;2022-09-03T01:13:21;16.83;;;9.80;;
67187;SDS011;54117;53.532;49.426;2022-09-03T01:24:54;17.10;;;10.90;;
67187;SDS011;54117;53.532;49.426;2022-09-03T01:30:20;19.38;;;12.30;;
67187;SDS011;54117;53.532;49.426;2022-09-03T01:32:53;24.45;;;13.38;;
67187;SDS011;54117;53.532;49.426;2022-09-03T01:38:28;19.35;;;12.57;;
67187;SDS011;54117;53.532;49.426;2022-09-03T01:44:34;25.10;;;13.07;;
67187;SDS011;54117;53.532;49.426;2022-09-03T01:50:15;23.08;;;13.55;;
67187;SDS011;54117;53.532;49.426;2022-09-03T01:52:54;32.92;;;14.00;;
67187;SDS011;54117;53.532;49.426;2022-09-03T02:01:19;30.13;;;13.63;;
67187;SDS011;54117;53.532;49.426;2022-09-03T02:03:52;24.30;;;12.40;;
67187;SDS011;54117;53.532;49.426;2022-09-03T02:06:19;25.67;;;13.02;;
67187;SDS011;54117;53.532;49.426;2022-09-03T02:08:46;20.35;;;12.25;;
67187;SDS011;54117;53.532;49.426;2022-09-03T02:11:12;20.75;;;11.65;;
67187;SDS011;54117;53.532;49.426;2022-09-03T02:13:42;19.58;;;10.80;;
67187;SDS011;54117;53.532;49.426;2022-09-03T02:16:24;17.83;;;11.02;;
67187;SDS011;54117;53.532;49.426;2022-09-03T02:19:06;14.63;;;10.00;;
67187;SDS011;54117;53.532;49.426;2022-09-03T02:21:39;19.80;;;10.68;;
67187;SDS011;54117;53.532;49.426;2022-09-03T02:24:20;19.27;;;10.93;;
67187;SDS011;54117;53.532;49.426;2022-09-03T02:26:47;17.75;;;11.65;;
67187;SDS011;54117;53.532;49.426;2022-09-03T02:29:14;18.10;;;11.60;;
67187;SDS011;54117;53.532;49.426;2022-09-03T02:31:42;16.23;;;10.60;;
67187;SDS011;54117;53.532;49.426;2022-09-03T02:34:08;17.02;;;11.85;;
67187;SDS011;54117;53.532;49.426;2022-09-03T02:36:36;18.20;;;11.38;;
67187;SDS011;54117;53.532;49.426;2022-09-03T02:39:06;18.52;;;11.48;;
67187;SDS011;54117;53.532;49.426;2022-09-03T02:41:32;21.73;;;12.88;;
67187;SDS011;54117;53.532;49.426;2022-09-03T02:44:04;22.50;;;13.15;;
67187;SDS011;54117;53.532;49.426;2022-09-03T02:46:39;27.52;;;14.02;;
67187;SDS011;54117;53.532;49.426;2022-09-03T02:49:11;26.73;;;12.77;;
67187;SDS011;54117;53.532;49.426;2022-09-03T02:51:38;23.70;;;13.70;;
67187;SDS011;54117;53.532;49.426;2022-09-03T02:54:06;21.58;;;10.93;;
67187;SDS011;54117;53.532;49.426;2022-09-03T02:56:34;20.35;;;11.07;;
67187;SDS011;54117;53.532;49.426;2022-09-03T02:59:01;22.77;;;11.73;;
67187;SDS011;54117;53.532;49.426;2022-09-03T03:01:29;20.95;;;11.63;;
67187;SDS011;54117;53.532;49.426;2022-09-03T03:03:55;17.40;;;10.30;;
67187;SDS011;54117;53.532;49.426;2022-09-03T03:06:21;19.20;;;10.95;;
67187;SDS011;54117;53.532;49.426;2022-09-03T03:08:48;18.77;;;11.10;;
67187;SDS011;54117;53.532;49.426;2022-09-03T03:11:15;22.90;;;10.68;;
67187;SDS011;54117;53.532;49.426;2022-09-03T03:13:44;17.48;;;10.02;;
67187;SDS011;54117;53.532;49.426;2022-09-03T03:16:11;20.67;;;10.13;;
67187;SDS011;54117;53.532;49.426;2022-09-03T03:18:39;20.25;;;10.82;;
67187;SDS011;54117;53.532;49.426;2022-09-03T03:21:06;22.30;;;11.05;;
67187;SDS011;54117;53.532;49.426;2022-09-03T03:23:37;21.35;;;11.43;;
67187;SDS011;54117;53.532;49.426;2022-09-03T03:26:05;22.67;;;10.82;;
67187;SDS011;54117;53.532;49.426;2022-09-03T03:28:33;17.83;;;9.48;;
67187;SDS011;54117;53.532;49.426;2022-09-03T03:31:06;16.40;;;9.10;;
67187;SDS011;54117;53.532;49.426;2022-09-03T03:33:37;15.70;;;8.68;;
67187;SDS011;54117;53.532;49.426;2022-09-03T03:36:07;16.83;;;8.90;;
67187;SDS011;54117;53.532;49.426;2022-09-03T03:38:38;12.50;;;7.93;;
67187;SDS011;54117;53.532;49.426;2022-09-03T03:41:07;13.70;;;7.53;;
67187;SDS011;54117;53.532;49.426;2022-09-03T03:43:36;12.98;;;7.53;;
67187;SDS011;54117;53.532;49.426;2022-09-03T03:46:02;13.85;;;7.13;;
67187;SDS011;54117;53.532;49.426;2022-09-03T03:48:30;11.52;;;7.18;;
67187;SDS011;54117;53.532;49.426;2022-09-03T03:51:00;14.23;;;7.03;;
67187;SDS011;54117;53.532;49.426;2022-09-03T03:53:29;13.48;;;6.63;;
67187;SDS011;54117;53.532;49.426;2022-09-03T03:56:01;11.20;;;5.95;;
67187;SDS011;54117;53.532;49.426;2022-09-03T03:58:30;13.35;;;6.55;;
67187;SDS011;54117;53.532;49.426;2022-09-03T04:01:07;12.70;;;6.22;;
67187;SDS011;54117;53.532;49.426;2022-09-03T04:03:42;10.73;;;6.07;;
67187;SDS011;54117;53.532;49.426;2022-09-03T04:06:16;12.38;;;7.57;;
67187;SDS011;54117;53.532;49.426;2022-09-03T04:08:45;10.88;;;6.53;;
67187;SDS011;54117;53.532;49.426;2022-09-03T04:11:20;9.40;;;7.20;;
67187;SDS011;54117;53.532;49.426;2022-09-03T04:13:48;13.48;;;7.18;;
67187;SDS011;54117;53.532;49.426;2022-09-03T04:18:48;14.85;;;7.07;;
67187;SDS011;54117;53.532;49.426;2022-09-03T04:21:16;8.75;;;6.88;;
67187;SDS011;54117;53.532;49.426;2022-09-03T04:23:44;10.02;;;7.18;;
67187;SDS011;54117;53.532;49.426;2022-09-03T04:26:12;11.05;;;7.57;;
67187;SDS011;54117;53.532;49.426;2022-09-03T04:28:40;11.35;;;7.47;;
67187;SDS011;54117;53.532;49.426;2022-09-03T04:31:08;12.80;;;7.68;;
67187;SDS011;54117;53.532;49.426;2022-09-03T04:33:35;14.95;;;7.63;;
67187;SDS011;54117;53.532;49.426;2022-09-03T04:36:15;10.88;;;8.52;;
67187;SDS011;54117;53.532;49.426;2022-09-03T04:38:51;12.05;;;8.50;;
67187;SDS011;54117;53.532;49.426;2022-09-03T04:41:22;19.73;;;9.63;;
67187;SDS011;54117;53.532;49.426;2022-09-03T04:43:51;14.02;;;9.82;;
67187;SDS011;54117;53.532;49.426;2022-09-03T04:46:19;16.88;;;10.00;;
67187;SDS011;54117;53.532;49.426;2022-09-03T04:48:48;13.32;;;9.60;;
67187;SDS011;54117;53.532;49.426;2022-09-03T04:51:17;17.02;;;10.25;;
67187;SDS011;54117;53.532;49.426;2022-09-03T04:53:46;13.60;;;9.82;;
67187;SDS011;54117;53.532;49.426;2022-09-03T04:56:20;16.73;;;10.07;;
67187;SDS011;54117;53.532;49.426;2022-09-03T04:58:52;11.55;;;7.90;;
67187;SDS011;54117;53.532;49.426;2022-09-03T05:01:26;15.20;;;8.18;;
67187;SDS011;54117;53.532;49.426;2022-09-03T05:03:55;11.55;;;6.55;;
67187;SDS011;54117;53.532;49.426;2022-09-03T05:06:23;11.82;;;8.05;;
67187;SDS011;54117;53.532;49.426;2022-09-03T05:08:50;18.05;;;12.02;;
67187;SDS011;54117;53.532;49.426;2022-09-03T05:11:19;14.27;;;10.77;;
67187;SDS011;54117;53.532;49.426;2022-09-03T05:13:47;20.02;;;12.63;;
67187;SDS011;54117;53.532;49.426;2022-09-03T05:16:17;17.20;;;11.27;;
67187;SDS011;54117;53.532;49.426;2022-09-03T05:18:45;16.63;;;10.57;;
67187;SDS011;54117;53.532;49.426;2022-09-03T05:21:16;23.95;;;17.17;;
67187;SDS011;54117;53.532;49.426;2022-09-03T05:23:45;27.20;;;17.88;;
67187;SDS011;54117;53.532;49.426;2022-09-03T05:26:16;28.95;;;19.00;;
67187;SDS011;54117;53.532;49.426;2022-09-03T05:28:45;46.13;;;29.95;;
67187;SDS011;54117;53.532;49.426;2022-09-03T05:31:12;44.85;;;29.40;;
67187;SDS011;54117;53.532;49.426;2022-09-03T05:33:45;40.97;;;26.92;;
67187;SDS011;54117;53.532;49.426;2022-09-03T05:36:14;31.83;;;22.20;;
67187;SDS011;54117;53.532;49.426;2022-09-03T05:38:43;35.28;;;22.85;;
67187;SDS011;54117;53.532;49.426;2022-09-03T05:41:12;41.88;;;24.45;;
67187;SDS011;54117;53.532;49.426;2022-09-03T05:43:39;38.00;;;26.35;;
67187;SDS011;54117;53.532;49.426;2022-09-03T05:46:07;36.88;;;24.05;;
67187;SDS011;54117;53.532;49.426;2022-09-03T05:48:43;37.45;;;25.23;;
67187;SDS011;54117;53.532;49.426;2022-09-03T05:51:10;38.55;;;24.92;;
67187;SDS011;54117;53.532;49.426;2022-09-03T05:53:41;47.95;;;29.67;;
67187;SDS011;54117;53.532;49.426;2022-09-03T05:56:17;60.28;;;40.65;;
67187;SDS011;54117;53.532;49.426;2022-09-03T05:58:46;55.05;;;37.55;;
67187;SDS011;54117;53.532;49.426;2022-09-03T06:01:18;44.50;;;31.90;;
67187;SDS011;54117;53.532;49.426;2022-09-03T06:03:47;49.25;;;34.50;;
67187;SDS011;54117;53.532;49.426;2022-09-03T06:06:39;44.40;;;31.27;;
67187;SDS011;54117;53.532;49.426;2022-09-03T06:09:08;48.78;;;33.22;;
67187;SDS011;54117;53.532;49.426;2022-09-03T06:11:36;52.45;;;38.88;;
67187;SDS011;54117;53.532;49.426;2022-09-03T06:14:05;63.15;;;42.70;;
67187;SDS011;54117;53.532;49.426;2022-09-03T06:16:34;49.42;;;34.17;;
67187;SDS011;54117;53.532;49.426;2022-09-03T06:19:03;52.25;;;31.02;;
67187;SDS011;54117;53.532;49.426;2022-09-03T06:21:31;46.03;;;30.80;;
67187;SDS011;54117;53.532;49.426;2022-09-03T06:23:58;17.42;;;12.38;;
67187;SDS011;54117;53.532;49.426;2022-09-03T06:26:24;10.98;;;7.78;;
67187;SDS011;54117;53.532;49.426;2022-09-03T06:28:52;7.95;;;4.15;;
67187;SDS011;54117;53.532;49.426;2022-09-03T06:31:20;3.22;;;2.20;;
67187;SDS011;54117;53.532;49.426;2022-09-03T06:33:47;5.78;;;2.40;;
67187;SDS011;54117;53.532;49.426;2022-09-03T06:36:17;4.10;;;1.88;;
67187;SDS011;54117;53.532;49.426;2022-09-03T06:38:44;1.63;;;1.20;;
67187;SDS011;54117;53.532;49.426;2022-09-03T06:41:13;2.70;;;1.55;;
67187;SDS011;54117;53.532;49.426;2022-09-03T06:43:46;5.03;;;2.00;;
67187;SDS011;54117;53.532;49.426;2022-09-03T06:46:14;4.82;;;2.70;;
67187;SDS011;54117;53.532;49.426;2022-09-03T06:48:42;4.75;;;3.50;;
67187;SDS011;54117;53.532;49.426;2022-09-03T06:51:10;3.13;;;2.83;;
67187;SDS011;54117;53.532;49.426;2022-09-03T06:53:41;13.18;;;3.70;;
67187;SDS011;54117;53.532;49.426;2022-09-03T06:56:12;6.03;;;3.58;;
67187;SDS011;54117;53.532;49.426;2022-09-03T06:58:40;4.75;;;2.35;;
67187;SDS011;54117;53.532;49.426;2022-09-03T07:01:15;6.05;;;2.53;;
67187;SDS011;54117;53.532;49.426;2022-09-03T07:03:47;4.50;;;2.20;;
67187;SDS011;54117;53.532;49.426;2022-09-03T07:06:20;4.03;;;2.10;;
67187;SDS011;54117;53.532;49.426;2022-09-03T07:08:48;2.65;;;2.33;;
67187;SDS011;54117;53.532;49.426;2022-09-03T07:11:15;2.22;;;2.00;;
67187;SDS011;54117;53.532;49.426;2022-09-03T07:13:44;1.60;;;1.50;;
67187;SDS011;54117;53.532;49.426;2022-09-03T07:16:19;1.15;;;1.00;;
67187;SDS011;54117;53.532;49.426;2022-09-03T07:18:47;3.75;;;1.00;;
67187;SDS011;54117;53.532;49.426;2022-09-03T07:21:15;1.52;;;0.77;;
67187;SDS011;54117;53.532;49.426;2022-09-03T07:23:44;4.70;;;0.90;;
67187;SDS011;54117;53.532;49.426;2022-09-03T07:26:12;0.52;;;0.50;;
67187;SDS011;54117;53.532;49.426;2022-09-03T07:28:41;0.60;;;0.60;;
67187;SDS011;54117;53.532;49.426;2022-09-03T07:31:15;0.75;;;0.43;;
67187;SDS011;54117;53.532;49.426;2022-09-03T07:33:47;1.23;;;0.80;;
67187;SDS011;54117;53.532;49.426;2022-09-03T07:36:14;0.80;;;0.60;;
67187;SDS011;54117;53.532;49.426;2022-09-03T07:38:41;1.63;;;0.60;;
67187;SDS011;54117;53.532;49.426;2022-09-03T07:41:10;1.55;;;0.60;;
67187;SDS011;54117;53.532;49.426;2022-09-03T07:43:40;1.30;;;0.85;;
67187;SDS011;54117;53.532;49.426;2022-09-03T07:46:08;0.70;;;0.70;;
67187;SDS011;54117;53.532;49.426;2022-09-03T07:48:39;3.30;;;0.70;;
67187;SDS011;54117;53.532;49.426;2022-09-03T07:51:05;0.82;;;0.50;;
67187;SDS011;54117;53.532;49.426;2022-09-03T07:53:33;1.60;;;0.88;;
67187;SDS011;54117;53.532;49.426;2022-09-03T07:56:04;0.90;;;0.73;;
67187;SDS011;54117;53.532;49.426;2022-09-03T07:58:32;4.75;;;0.88;;
67187;SDS011;54117;53.532;49.426;2022-09-03T08:01:06;1.40;;;1.30;;
67187;SDS011;54117;53.532;49.426;2022-09-03T08:03:38;0.82;;;0.75;;
67187;SDS011;54117;53.532;49.426;2022-09-03T08:06:08;2.67;;;0.82;;
67187;SDS011;54117;53.532;49.426;2022-09-03T08:08:34;1.60;;;0.70;;
67187;SDS011;54117;53.532;49.426;2022-09-03T08:11:18;1.85;;;0.80;;
67187;SDS011;54117;53.532;49.426;2022-09-03T08:13:56;1.08;;;0.65;;
67187;SDS011;54117;53.532;49.426;2022-09-03T08:16:29;3.38;;;0.60;;
67187;SDS011;54117;53.532;49.426;2022-09-03T08:19:06;5.88;;;0.82;;
67187;SDS011;54117;53.532;49.426;2022-09-03T08:21:33;1.20;;;0.85;;
67187;SDS011;54117;53.532;49.426;2022-09-03T08:24:00;1.17;;;0.70;;
67187;SDS011;54117;53.532;49.426;2022-09-03T08:26:30;1.52;;;0.60;;
67187;SDS011;54117;53.532;49.426;2022-09-03T08:28:58;4.80;;;1.20;;
67187;SDS011;54117;53.532;49.426;2022-09-03T08:31:25;0.90;;;0.90;;
67187;SDS011;54117;53.532;49.426;2022-09-03T08:33:53;1.08;;;0.80;;
67187;SDS011;54117;53.532;49.426;2022-09-03T08:36:21;2.75;;;1.15;;
67187;SDS011;54117;53.532;49.426;2022-09-03T08:38:52;1.15;;;0.80;;
67187;SDS011;54117;53.532;49.426;2022-09-03T08:41:22;0.82;;;0.68;;
67187;SDS011;54117;53.532;49.426;2022-09-03T08:46:53;1.35;;;0.98;;
67187;SDS011;54117;53.532;49.426;2022-09-03T08:49:25;3.40;;;1.00;;
67187;SDS011;54117;53.532;49.426;2022-09-03T08:52:00;6.95;;;1.25;;
67187;SDS011;54117;53.532;49.426;2022-09-03T08:54:31;1.30;;;0.90;;
67187;SDS011;54117;53.532;49.426;2022-09-03T08:56:59;1.02;;;0.82;;
67187;SDS011;54117;53.532;49.426;2022-09-03T08:59:28;7.38;;;1.15;;
67187;SDS011;54117;53.532;49.426;2022-09-03T09:01:57;3.42;;;0.80;;
67187;SDS011;54117;53.532;49.426;2022-09-03T09:07:37;3.17;;;1.10;;
67187;SDS011;54117;53.532;49.426;2022-09-03T09:13:17;2.03;;;0.90;;
67187;SDS011;54117;53.532;49.426;2022-09-03T09:21:27;4.47;;;1.33;;
67187;SDS011;54117;53.532;49.426;2022-09-03T09:24:00;5.78;;;1.25;;
67187;SDS011;54117;53.532;49.426;2022-09-03T09:26:29;0.90;;;0.90;;
67187;SDS011;54117;53.532;49.426;2022-09-03T09:28:59;1.15;;;0.82;;
67187;SDS011;54117;53.532;49.426;2022-09-03T09:31:35;2.65;;;0.90;;
67187;SDS011;54117;53.532;49.426;2022-09-03T09:34:14;1.25;;;0.85;;
67187;SDS011;54117;53.532;49.426;2022-09-03T09:36:42;0.93;;;0.90;;
67187;SDS011;54117;53.532;49.426;2022-09-03T09:39:15;2.67;;;1.58;;
67187;SDS011;54117;53.532;49.426;2022-09-03T09:41:42;3.25;;;1.50;;
67187;SDS011;54117;53.532;49.426;2022-09-03T09:44:20;10.02;;;1.50;;
67187;SDS011;54117;53.532;49.426;2022-09-03T09:46:47;3.17;;;1.80;;
67187;SDS011;54117;53.532;49.426;2022-09-03T09:49:29;4.35;;;2.13;;
67187;SDS011;54117;53.532;49.426;2022-09-03T09:52:09;2.05;;;1.52;;
67187;SDS011;54117;53.532;49.426;2022-09-03T09:54:37;1.55;;;1.27;;
67187;SDS011;54117;53.532;49.426;2022-09-03T09:57:06;1.45;;;1.35;;
67187;SDS011;54117;53.532;49.426;2022-09-03T09:59:42;1.15;;;1.00;;
67187;SDS011;54117;53.532;49.426;2022-09-03T10:02:22;5.00;;;1.00;;
67187;SDS011;54117;53.532;49.426;2022-09-03T10:04:58;2.00;;;1.38;;
67187;SDS011;54117;53.532;49.426;2022-09-03T10:07:36;1.55;;;1.00;;
67187;SDS011;54117;53.532;49.426;2022-09-03T10:12:44;1.50;;;1.08;;
67187;SDS011;54117;53.532;49.426;2022-09-03T10:15:39;3.10;;;1.00;;
67187;SDS011;54117;53.532;49.426;2022-09-03T10:18:14;2.67;;;0.98;;
67187;SDS011;54117;53.532;49.426;2022-09-03T10:21:03;3.35;;;1.33;;
67187;SDS011;54117;53.532;49.426;2022-09-03T10:26:24;3.08;;;1.35;;
67187;SDS011;54117;53.532;49.426;2022-09-03T10:28:56;2.42;;;1.20;;
67187;SDS011;54117;53.532;49.426;2022-09-03T10:51:19;2.60;;;2.40;;
67187;SDS011;54117;53.532;49.426;2022-09-03T10:56:31;3.22;;;1.55;;
67187;SDS011;54117;53.532;49.426;2022-09-03T11:02:16;2.20;;;1.50;;
67187;SDS011;54117;53.532;49.426;2022-09-03T11:07:24;1.73;;;1.63;;
67187;SDS011;54117;53.532;49.426;2022-09-03T11:10:05;2.72;;;2.00;;
67187;SDS011;54117;53.532;49.426;2022-09-03T11:12:45;4.45;;;2.85;;
67187;SDS011;54117;53.532;49.426;2022-09-03T11:15:25;4.30;;;3.05;;
67187;SDS011;54117;53.532;49.426;2022-09-03T11:18:40;12.98;;;4.40;;
67187;SDS011;54117;53.532;49.426;2022-09-03T11:20:49;4.70;;;3.05;;
67187;SDS011;54117;53.532;49.426;2022-09-03T11:23:19;4.35;;;2.22;;
67187;SDS011;54117;53.532;49.426;2022-09-03T11:25:50;2.95;;;1.90;;
67187;SDS011;54117;53.532;49.426;2022-09-03T11:28:38;8.77;;;3.45;;
67187;SDS011;54117;53.532;49.426;2022-09-03T11:33:59;3.08;;;1.83;;
67187;SDS011;54117;53.532;49.426;2022-09-03T11:36:46;2.85;;;2.55;;
67187;SDS011;54117;53.532;49.426;2022-09-03T11:39:15;8.73;;;3.08;;
67187;SDS011;54117;53.532;49.426;2022-09-03T11:41:58;4.15;;;2.65;;
67187;SDS011;54117;53.532;49.426;2022-09-03T11:44:36;3.55;;;2.20;;
67187;SDS011;54117;53.532;49.426;2022-09-03T11:47:20;6.05;;;2.47;;
67187;SDS011;54117;53.532;49.426;2022-09-03T11:49:49;5.22;;;2.65;;
67187;SDS011;54117;53.532;49.426;2022-09-03T11:52:30;3.97;;;1.90;;
67187;SDS011;54117;53.532;49.426;2022-09-03T11:54:57;3.30;;;2.10;;
67187;SDS011;54117;53.532;49.426;2022-09-03T12:00:16;5.05;;;2.38;;
67187;SDS011;54117;53.532;49.426;2022-09-03T12:02:47;3.55;;;2.63;;
67187;SDS011;54117;53.532;49.426;2022-09-03T12:16:18;4.80;;;1.77;;
67187;SDS011;54117;53.532;49.426;2022-09-03T12:18:47;2.63;;;1.70;;
67187;SDS011;54117;53.532;49.426;2022-09-03T12:21:17;3.30;;;1.80;;
67187;SDS011;54117;53.532;49.426;2022-09-03T12:23:47;2.00;;;1.73;;
67187;SDS011;54117;53.532;49.426;2022-09-03T12:26:21;2.35;;;1.92;;
67187;SDS011;54117;53.532;49.426;2022-09-03T12:28:50;2.05;;;1.65;;
67187;SDS011;54117;53.532;49.426;2022-09-03T12:36:35;6.47;;;2.08;;
67187;SDS011;54117;53.532;49.426;2022-09-03T12:39:07;8.18;;;2.67;;
67187;SDS011;54117;53.532;49.426;2022-09-03T12:44:31;2.47;;;2.10;;
67187;SDS011;54117;53.532;49.426;2022-09-03T12:47:11;2.63;;;2.38;;
67187;SDS011;54117;53.532;49.426;2022-09-03T12:49:43;3.38;;;2.50;;
67187;SDS011;54117;53.532;49.426;2022-09-03T12:57:28;5.07;;;3.03;;
67187;SDS011;54117;53.532;49.426;2022-09-03T13:00:02;3.58;;;2.10;;
67187;SDS011;54117;53.532;49.426;2022-09-03T13:02:35;5.97;;;2.90;;
67187;SDS011;54117;53.532;49.426;2022-09-03T13:05:05;4.32;;;2.45;;
67187;SDS011;54117;53.532;49.426;2022-09-03T13:07:42;3.35;;;3.05;;
67187;SDS011;54117;53.532;49.426;2022-09-03T13:10:22;6.60;;;3.08;;
67187;SDS011;54117;53.532;49.426;2022-09-03T13:12:56;3.88;;;2.90;;
67187;SDS011;54117;53.532;49.426;2022-09-03T13:15:27;6.65;;;2.53;;
67187;SDS011;54117;53.532;49.426;2022-09-03T13:20:49;10.82;;;5.15;;
67187;SDS011;54117;53.532;49.426;2022-09-03T13:23:31;14.63;;;8.60;;
67187;SDS011;54117;53.532;49.426;2022-09-03T13:26:17;20.67;;;9.07;;
67187;SDS011;54117;53.532;49.426;2022-09-03T13:31:40;10.43;;;5.82;;
67187;SDS011;54117;53.532;49.426;2022-09-03T13:34:16;5.75;;;4.50;;
67187;SDS011;54117;53.532;49.426;2022-09-03T13:40:18;9.25;;;4.93;;
67187;SDS011;54117;53.532;49.426;2022-09-03T13:43:02;4.40;;;3.22;;
67187;SDS011;54117;53.532;49.426;2022-09-03T13:46:06;7.07;;;4.03;;
67187;SDS011;54117;53.532;49.426;2022-09-03T13:48:40;7.47;;;4.65;;
67187;SDS011;54117;53.532;49.426;2022-09-03T13:51:28;13.88;;;6.68;;
67187;SDS011;54117;53.532;49.426;2022-09-03T14:13:31;6.78;;;3.85;;
67187;SDS011;54117;53.532;49.426;2022-09-03T14:16:07;4.57;;;3.60;;
67187;SDS011;54117;53.532;49.426;2022-09-03T14:19:22;6.65;;;4.35;;
67187;SDS011;54117;53.532;49.426;2022-09-03T14:22:41;4.05;;;3.38;;
67187;SDS011;54117;53.532;49.426;2022-09-03T14:27:42;8.05;;;4.53;;
67187;SDS011;54117;53.532;49.426;2022-09-03T14:40:41;5.53;;;2.75;;
67187;SDS011;54117;53.532;49.426;2022-09-03T14:46:15;13.52;;;7.72;;
67187;SDS011;54117;53.532;49.426;2022-09-03T15:00:16;12.32;;;6.70;;
67187;SDS011;54117;53.532;49.426;2022-09-03T15:10:53;25.00;;;15.20;;
67187;SDS011;54117;53.532;49.426;2022-09-03T15:13:32;24.50;;;14.07;;
67187;SDS011;54117;53.532;49.426;2022-09-03T15:16:13;25.42;;;14.57;;
67187;SDS011;54117;53.532;49.426;2022-09-03T15:19:18;21.38;;;13.65;;
67187;SDS011;54117;53.532;49.426;2022-09-03T15:22:35;26.92;;;13.38;;
67187;SDS011;54117;53.532;49.426;2022-09-03T15:30:40;21.83;;;11.93;;
67187;SDS011;54117;53.532;49.426;2022-09-03T15:33:16;28.02;;;13.43;;
67187;SDS011;54117;53.532;49.426;2022-09-03T15:38:42;32.22;;;14.48;;
67187;SDS011;54117;53.532;49.426;2022-09-03T15:41:33;34.00;;;16.45;;
67187;SDS011;54117;53.532;49.426;2022-09-03T15:44:07;33.38;;;17.27;;
67187;SDS011;54117;53.532;49.426;2022-09-03T15:46:46;40.17;;;17.42;;
67187;SDS011;54117;53.532;49.426;2022-09-03T16:01:26;36.47;;;17.63;;
67187;SDS011;54117;53.532;49.426;2022-09-03T16:04:37;43.65;;;18.67;;
67187;SDS011;54117;53.532;49.426;2022-09-03T16:07:25;53.67;;;24.13;;
67187;SDS011;54117;53.532;49.426;2022-09-03T16:10:07;59.88;;;32.25;;
67187;SDS011;54117;53.532;49.426;2022-09-03T16:12:47;75.35;;;39.33;;
67187;SDS011;54117;53.532;49.426;2022-09-03T16:15:35;67.50;;;36.00;;
67187;SDS011;54117;53.532;49.426;2022-09-03T16:20:58;63.53;;;36.90;;
67187;SDS011;54117;53.532;49.426;2022-09-03T16:23:57;78.47;;;42.40;;
67187;SDS011;54117;53.532;49.426;2022-09-03T16:26:39;97.55;;;48.50;;
67187;SDS011;54117;53.532;49.426;2022-09-03T16:29:17;80.05;;;44.20;;
67187;SDS011;54117;53.532;49.426;2022-09-03T16:31:55;91.93;;;47.90;;
67187;SDS011;54117;53.532;49.426;2022-09-03T16:51:56;156.05;;;79.97;;
67187;SDS011;54117;53.532;49.426;2022-09-03T17:00:14;140.75;;;74.00;;
67187;SDS011;54117;53.532;49.426;2022-09-03T17:16:53;116.22;;;63.92;;
67187;SDS011;54117;53.532;49.426;2022-09-03T17:25:00;103.45;;;58.10;;
67187;SDS011;54117;53.532;49.426;2022-09-03T17:30:26;89.47;;;51.63;;
67187;SDS011;54117;53.532;49.426;2022-09-03T17:35:33;97.18;;;50.20;;
67187;SDS011;54117;53.532;49.426;2022-09-03T17:49:05;90.40;;;46.70;;
67187;SDS011;54117;53.532;49.426;2022-09-03T17:54:46;79.75;;;44.03;;
67187;SDS011;54117;53.532;49.426;2022-09-03T17:57:21;85.80;;;43.83;;
67187;SDS011;54117;53.532;49.426;2022-09-03T18:05:32;82.13;;;41.38;;
67187;SDS011;54117;53.532;49.426;2022-09-03T18:08:13;81.07;;;41.38;;
67187;SDS011;54117;53.532;49.426;2022-09-03T18:11:10;78.05;;;36.60;;
67187;SDS011;54117;53.532;49.426;2022-09-03T18:14:09;77.75;;;38.85;;
67187;SDS011;54117;53.532;49.426;2022-09-03T18:16:42;68.55;;;34.85;;
67187;SDS011;54117;53.532;49.426;2022-09-03T18:22:30;52.65;;;27.25;;
67187;SDS011;54117;53.532;49.426;2022-09-03T18:25:28;59.65;;;26.85;;
67187;SDS011;54117;53.532;49.426;2022-09-03T18:28:15;46.17;;;24.10;;
67187;SDS011;54117;53.532;49.426;2022-09-03T18:31:09;42.53;;;23.50;;
67187;SDS011;54117;53.532;49.426;2022-09-03T18:33:59;44.03;;;23.70;;
67187;SDS011;54117;53.532;49.426;2022-09-03T18:36:45;52.58;;;25.27;;
67187;SDS011;54117;53.532;49.426;2022-09-03T18:39:30;42.65;;;23.25;;
67187;SDS011;54117;53.532;49.426;2022-09-03T18:57:01;41.60;;;21.98;;
67187;SDS011;54117;53.532;49.426;2022-09-03T19:09:36;40.78;;;21.30;;
67187;SDS011;54117;53.532;49.426;2022-09-03T19:15:55;48.75;;;21.70;;
67187;SDS011;54117;53.532;49.426;2022-09-03T19:22:12;42.63;;;21.38;;
67187;SDS011;54117;53.532;49.426;2022-09-03T19:25:10;44.17;;;21.10;;
67187;SDS011;54117;53.532;49.426;2022-09-03T19:28:14;49.42;;;22.45;;
67187;SDS011;54117;53.532;49.426;2022-09-03T19:37:24;39.10;;;18.27;;
67187;SDS011;54117;53.532;49.426;2022-09-03T19:46:40;35.58;;;18.10;;
67187;SDS011;54117;53.532;49.426;2022-09-03T19:50:06;35.17;;;19.55;;
67187;SDS011;54117;53.532;49.426;2022-09-03T19:53:10;40.80;;;18.50;;
67187;SDS011;54117;53.532;49.426;2022-09-03T19:55:59;41.45;;;19.10;;
67187;SDS011;54117;53.532;49.426;2022-09-03T19:58:53;30.85;;;17.50;;
67187;SDS011;54117;53.532;49.426;2022-09-03T20:01:41;33.60;;;17.33;;
67187;SDS011;54117;53.532;49.426;2022-09-03T20:04:28;35.97;;;17.90;;
67187;SDS011;54117;53.532;49.426;2022-09-03T20:07:40;33.92;;;16.25;;
67187;SDS011;54117;53.532;49.426;2022-09-03T20:10:25;38.63;;;16.65;;
67187;SDS011;54117;53.532;49.426;2022-09-03T20:13:07;29.95;;;17.23;;
67187;SDS011;54117;53.532;49.426;2022-09-03T20:18:14;31.55;;;18.17;;
67187;SDS011;54117;53.532;49.426;2022-09-03T20:21:16;36.80;;;19.27;;
67187;SDS011;54117;53.532;49.426;2022-09-03T20:34:44;39.90;;;20.88;;
67187;SDS011;54117;53.532;49.426;2022-09-03T20:40:22;36.72;;;19.58;;
67187;SDS011;54117;53.532;49.426;2022-09-03T20:51:54;28.90;;;15.10;;
67187;SDS011;54117;53.532;49.426;2022-09-03T20:54:31;32.20;;;14.85;;
67187;SDS011;54117;53.532;49.426;2022-09-03T20:59:48;31.40;;;15.85;;
67187;SDS011;54117;53.532;49.426;2022-09-03T21:02:39;38.67;;;17.92;;
67187;SDS011;54117;53.532;49.426;2022-09-03T21:05:31;33.08;;;15.80;;
67187;SDS011;54117;53.532;49.426;2022-09-03T21:21:57;37.17;;;15.85;;